createdAt,value
2017-03-12T00:00:05.711Z,7.71
2017-03-12T00:00:46.153Z,7.71
2017-03-12T00:01:26.597Z,7.62
2017-03-12T00:02:07.044Z,7.67
2017-03-12T00:02:47.498Z,7.63
2017-03-12T00:03:27.946Z,7.71
2017-03-12T00:04:08.401Z,7.63
2017-03-12T00:04:48.823Z,7.67
2017-03-12T00:05:29.267Z,7.6
2017-03-12T00:06:09.710Z,7.67
2017-03-12T00:06:50.160Z,7.6
2017-03-12T00:07:30.609Z,7.59
2017-03-12T00:08:11.062Z,7.6
2017-03-12T00:08:51.509Z,7.66
2017-03-12T00:09:31.954Z,7.56
2017-03-12T00:10:12.385Z,7.66
2017-03-12T00:10:52.838Z,7.63
2017-03-12T00:11:33.278Z,7.66
2017-03-12T00:12:13.719Z,7.63
2017-03-12T00:12:54.170Z,7.58
2017-03-12T00:13:34.616Z,7.69
2017-03-12T00:14:15.054Z,7.59
2017-03-12T00:14:55.485Z,7.6
2017-03-12T00:15:35.936Z,7.6
2017-03-12T00:16:16.378Z,7.45
2017-03-12T00:16:56.825Z,7.63
2017-03-12T00:17:37.281Z,7.49
2017-03-12T00:18:17.730Z,7.42
2017-03-12T00:18:58.179Z,7.47
2017-03-12T00:19:38.615Z,7.41
2017-03-12T00:20:19.055Z,7.42
2017-03-12T00:21:00.125Z,7.38
2017-03-12T00:21:40.579Z,7.4
2017-03-12T00:22:21.010Z,7.41
2017-03-12T00:23:01.455Z,7.42
2017-03-12T00:23:41.899Z,7.4
2017-03-12T00:24:22.337Z,7.34
2017-03-12T00:25:02.789Z,7.35
2017-03-12T00:25:43.226Z,7.31
2017-03-12T00:26:23.677Z,7.34
2017-03-12T00:27:04.112Z,7.29
2017-03-12T00:27:44.562Z,7.34
2017-03-12T00:28:25.004Z,7.32
2017-03-12T00:29:05.445Z,7.29
2017-03-12T00:29:45.898Z,7.34
2017-03-12T00:30:26.330Z,7.31
2017-03-12T00:31:06.772Z,7.29
2017-03-12T00:31:47.218Z,7.23
2017-03-12T00:32:27.664Z,7.19
2017-03-12T00:33:08.120Z,7.23
2017-03-12T00:33:48.564Z,7.22
2017-03-12T00:34:29.009Z,7.24
2017-03-12T00:35:09.439Z,7.19
2017-03-12T00:35:49.889Z,7.22
2017-03-12T00:36:30.334Z,7.2
2017-03-12T00:37:10.776Z,7.24
2017-03-12T00:37:51.227Z,7.2
2017-03-12T00:38:31.659Z,7.2
2017-03-12T00:39:12.097Z,7.22
2017-03-12T00:39:52.553Z,7.2
2017-03-12T00:40:32.996Z,7.23
2017-03-12T00:41:13.436Z,7.16
2017-03-12T00:41:53.886Z,7.09
2017-03-12T00:42:34.334Z,7.13
2017-03-12T00:43:14.787Z,7.07
2017-03-12T00:43:55.236Z,6.99
2017-03-12T00:44:35.674Z,7.12
2017-03-12T00:45:16.106Z,7.08
2017-03-12T00:45:56.559Z,7.04
2017-03-12T00:46:36.990Z,7.09
2017-03-12T00:47:17.438Z,7.09
2017-03-12T00:47:57.885Z,7.08
2017-03-12T00:48:38.328Z,7.05
2017-03-12T00:49:18.776Z,7.04
2017-03-12T00:49:59.218Z,7.04
2017-03-12T00:50:39.667Z,7.04
2017-03-12T00:51:20.100Z,6.99
2017-03-12T00:52:00.554Z,7.01
2017-03-12T00:52:41.003Z,7.02
2017-03-12T00:53:21.456Z,6.99
2017-03-12T00:54:01.898Z,7.01
2017-03-12T00:54:42.341Z,6.98
2017-03-12T00:55:22.775Z,6.98
2017-03-12T00:56:03.215Z,7.04
2017-03-12T00:56:43.663Z,7.02
2017-03-12T00:57:24.109Z,6.89
2017-03-12T00:58:04.562Z,6.84
2017-03-12T00:58:45.007Z,6.86
2017-03-12T00:59:25.447Z,6.95
2017-03-12T01:00:05.887Z,7.01
2017-03-12T01:00:46.333Z,6.87
2017-03-12T01:01:26.779Z,6.97
2017-03-12T01:02:07.214Z,6.86
2017-03-12T01:02:47.667Z,6.97
2017-03-12T01:03:28.889Z,6.87
2017-03-12T01:04:09.324Z,6.84
2017-03-12T01:04:49.773Z,7.01
2017-03-12T01:05:30.186Z,6.89
2017-03-12T01:06:10.628Z,6.98
2017-03-12T01:06:51.070Z,6.98
2017-03-12T01:07:31.513Z,6.9
2017-03-12T01:08:11.964Z,6.77
2017-03-12T01:08:52.409Z,6.76
2017-03-12T01:09:32.866Z,6.8
2017-03-12T01:10:13.308Z,6.79
2017-03-12T01:10:53.751Z,6.8
2017-03-12T01:11:34.187Z,6.76
2017-03-12T01:12:14.623Z,6.81
2017-03-12T01:12:55.065Z,6.89
2017-03-12T01:13:35.514Z,6.87
2017-03-12T01:14:15.970Z,6.81
2017-03-12T01:14:56.415Z,6.8
2017-03-12T01:15:36.854Z,6.79
2017-03-12T01:16:18.211Z,6.77
2017-03-12T01:16:58.671Z,6.9
2017-03-12T01:17:39.099Z,6.77
2017-03-12T01:18:19.543Z,6.87
2017-03-12T01:18:59.985Z,6.9
2017-03-12T01:19:40.432Z,6.91
2017-03-12T01:20:20.878Z,6.91
2017-03-12T01:21:01.319Z,6.84
2017-03-12T01:21:41.766Z,6.86
2017-03-12T01:22:22.206Z,6.91
2017-03-12T01:23:02.657Z,6.94
2017-03-12T01:23:43.101Z,6.94
2017-03-12T01:24:23.546Z,6.9
2017-03-12T01:25:03.989Z,6.73
2017-03-12T01:25:44.435Z,6.89
2017-03-12T01:26:24.878Z,6.91
2017-03-12T01:27:05.338Z,6.84
2017-03-12T01:27:45.771Z,6.84
2017-03-12T01:28:26.222Z,6.9
2017-03-12T01:29:06.668Z,6.84
2017-03-12T01:29:47.122Z,6.79
2017-03-12T01:30:27.571Z,6.81
2017-03-12T01:31:08.024Z,6.77
2017-03-12T01:31:48.467Z,6.79
2017-03-12T01:32:28.910Z,6.71
2017-03-12T01:33:09.355Z,6.79
2017-03-12T01:33:49.798Z,6.72
2017-03-12T01:34:30.248Z,6.68
2017-03-12T01:35:10.697Z,6.79
2017-03-12T01:35:51.147Z,6.77
2017-03-12T01:36:31.592Z,6.72
2017-03-12T01:37:12.034Z,6.66
2017-03-12T01:37:52.468Z,6.72
2017-03-12T01:38:32.893Z,6.76
2017-03-12T01:39:13.347Z,6.73
2017-03-12T01:39:53.796Z,6.66
2017-03-12T01:40:34.238Z,6.68
2017-03-12T01:41:14.680Z,6.73
2017-03-12T01:41:55.128Z,6.76
2017-03-12T01:42:35.560Z,6.62
2017-03-12T01:43:16.003Z,6.61
2017-03-12T01:43:56.452Z,6.66
2017-03-12T01:44:36.900Z,6.61
2017-03-12T01:45:17.354Z,6.56
2017-03-12T01:45:57.807Z,6.68
2017-03-12T01:46:39.220Z,6.56
2017-03-12T01:47:19.669Z,6.71
2017-03-12T01:48:00.120Z,6.68
2017-03-12T01:48:40.570Z,6.65
2017-03-12T01:49:21.014Z,6.58
2017-03-12T01:50:01.462Z,6.69
2017-03-12T01:50:41.938Z,6.61
2017-03-12T01:51:22.344Z,6.69
2017-03-12T01:52:02.775Z,6.63
2017-03-12T01:52:43.219Z,6.56
2017-03-12T01:53:23.660Z,6.68
2017-03-12T01:54:04.102Z,6.63
2017-03-12T01:54:44.554Z,6.56
2017-03-12T01:55:24.993Z,6.56
2017-03-12T01:56:05.440Z,6.44
2017-03-12T01:56:45.886Z,6.5
2017-03-12T01:57:26.340Z,6.48
2017-03-12T01:58:06.796Z,6.44
2017-03-12T01:58:47.242Z,6.44
2017-03-12T01:59:27.694Z,6.38
2017-03-12T02:00:09.037Z,6.5
2017-03-12T02:00:49.489Z,6.35
2017-03-12T02:01:29.930Z,6.32
2017-03-12T02:02:10.379Z,6.38
2017-03-12T02:02:50.822Z,6.4
2017-03-12T02:03:32.030Z,6.36
2017-03-12T02:04:12.477Z,6.38
2017-03-12T02:04:52.918Z,6.36
2017-03-12T02:05:33.365Z,6.35
2017-03-12T02:06:13.817Z,6.44
2017-03-12T02:06:54.262Z,6.54
2017-03-12T02:07:36.212Z,6.59
2017-03-12T02:08:16.665Z,6.59
2017-03-12T02:08:57.099Z,6.56
2017-03-12T02:09:37.548Z,6.5
2017-03-12T02:10:17.986Z,6.48
2017-03-12T02:10:58.429Z,6.59
2017-03-12T02:11:38.871Z,6.58
2017-03-12T02:12:19.315Z,6.51
2017-03-12T02:12:59.753Z,6.56
2017-03-12T02:13:40.203Z,6.58
2017-03-12T02:14:21.631Z,6.51
2017-03-12T02:15:02.082Z,6.5
2017-03-12T02:15:42.528Z,6.59
2017-03-12T02:16:22.964Z,6.48
2017-03-12T02:17:03.405Z,6.5
2017-03-12T02:17:43.836Z,6.48
2017-03-12T02:18:24.282Z,6.35
2017-03-12T02:19:04.720Z,6.58
2017-03-12T02:19:45.171Z,6.53
2017-03-12T02:20:25.613Z,6.58
2017-03-12T02:21:06.084Z,6.62
2017-03-12T02:21:46.525Z,6.56
2017-03-12T02:22:26.969Z,6.51
2017-03-12T02:23:07.419Z,6.56
2017-03-12T02:23:47.865Z,6.51
2017-03-12T02:24:28.305Z,6.59
2017-03-12T02:25:08.750Z,6.58
2017-03-12T02:25:49.189Z,6.54
2017-03-12T02:26:29.631Z,6.5
2017-03-12T02:27:10.068Z,6.54
2017-03-12T02:27:50.506Z,6.59
2017-03-12T02:28:30.950Z,6.54
2017-03-12T02:29:11.383Z,6.46
2017-03-12T02:29:51.819Z,6.43
2017-03-12T02:30:32.266Z,6.46
2017-03-12T02:31:12.717Z,6.41
2017-03-12T02:31:53.173Z,6.38
2017-03-12T02:32:33.612Z,6.33
2017-03-12T02:33:14.056Z,6.28
2017-03-12T02:33:54.496Z,6.26
2017-03-12T02:34:34.942Z,6.19
2017-03-12T02:35:15.384Z,6.19
2017-03-12T02:35:55.826Z,6.19
2017-03-12T02:36:36.264Z,6.25
2017-03-12T02:37:16.709Z,6.3
2017-03-12T02:37:57.160Z,6.22
2017-03-12T02:38:37.596Z,6.26
2017-03-12T02:39:18.711Z,6.29
2017-03-12T02:39:59.153Z,6.25
2017-03-12T02:40:39.581Z,6.26
2017-03-12T02:41:20.041Z,6.35
2017-03-12T02:42:00.475Z,6.36
2017-03-12T02:42:40.935Z,6.33
2017-03-12T02:43:21.386Z,6.22
2017-03-12T02:44:01.834Z,6.25
2017-03-12T02:44:42.287Z,6.3
2017-03-12T02:45:22.728Z,6.26
2017-03-12T02:46:03.174Z,6.29
2017-03-12T02:46:43.607Z,6.19
2017-03-12T02:47:24.066Z,6.29
2017-03-12T02:48:04.502Z,6.21
2017-03-12T02:48:44.951Z,6.26
2017-03-12T02:49:25.398Z,6.21
2017-03-12T02:50:05.843Z,6.21
2017-03-12T02:50:46.291Z,6.21
2017-03-12T02:51:26.736Z,6.25
2017-03-12T02:52:07.171Z,6.25
2017-03-12T02:52:47.624Z,6.29
2017-03-12T02:53:28.069Z,6.18
2017-03-12T02:54:08.507Z,6.19
2017-03-12T02:54:48.957Z,6.26
2017-03-12T02:55:29.396Z,6.29
2017-03-12T02:56:10.542Z,6.26
2017-03-12T02:56:51.808Z,6.25
2017-03-12T02:57:32.245Z,6.22
2017-03-12T02:58:12.697Z,6.32
2017-03-12T02:58:53.144Z,6.22
2017-03-12T02:59:33.624Z,6.33
2017-03-12T03:00:14.057Z,6.32
2017-03-12T03:00:54.503Z,6.35
2017-03-12T03:01:34.944Z,6.47
2017-03-12T03:02:15.377Z,6.46
2017-03-12T03:02:55.828Z,6.46
2017-03-12T03:03:36.269Z,6.5
2017-03-12T03:04:16.849Z,6.38
2017-03-12T03:04:57.297Z,6.43
2017-03-12T03:05:37.743Z,6.5
2017-03-12T03:06:18.194Z,6.61
2017-03-12T03:06:58.644Z,6.44
2017-03-12T03:07:39.098Z,6.51
2017-03-12T03:08:19.543Z,6.41
2017-03-12T03:08:59.987Z,6.33
2017-03-12T03:09:40.438Z,6.43
2017-03-12T03:10:20.882Z,6.44
2017-03-12T03:11:01.329Z,6.36
2017-03-12T03:11:41.787Z,6.4
2017-03-12T03:12:22.226Z,6.41
2017-03-12T03:13:02.670Z,6.48
2017-03-12T03:13:43.804Z,6.51
2017-03-12T03:14:24.238Z,6.47
2017-03-12T03:15:04.695Z,6.5
2017-03-12T03:15:45.126Z,6.4
2017-03-12T03:16:25.569Z,6.41
2017-03-12T03:17:06.015Z,6.4
2017-03-12T03:17:46.454Z,6.51
2017-03-12T03:18:26.907Z,6.61
2017-03-12T03:19:07.330Z,6.51
2017-03-12T03:19:47.774Z,6.46
2017-03-12T03:20:28.228Z,6.56
2017-03-12T03:21:08.678Z,6.71
2017-03-12T03:21:49.119Z,6.61
2017-03-12T03:22:29.560Z,6.56
2017-03-12T03:23:10.010Z,6.54
2017-03-12T03:23:50.437Z,6.56
2017-03-12T03:24:30.870Z,6.56
2017-03-12T03:25:11.318Z,6.51
2017-03-12T03:25:51.769Z,6.44
2017-03-12T03:26:32.204Z,6.59
2017-03-12T03:27:12.649Z,6.46
2017-03-12T03:27:53.090Z,6.51
2017-03-12T03:28:33.543Z,6.59
2017-03-12T03:29:13.980Z,6.54
2017-03-12T03:29:54.430Z,6.59
2017-03-12T03:30:34.882Z,6.5
2017-03-12T03:31:15.325Z,6.41
2017-03-12T03:31:55.767Z,6.51
2017-03-12T03:32:36.204Z,6.61
2017-03-12T03:33:16.650Z,6.53
2017-03-12T03:33:57.090Z,6.58
2017-03-12T03:34:37.539Z,6.53
2017-03-12T03:35:17.991Z,6.59
2017-03-12T03:35:58.431Z,6.47
2017-03-12T03:36:38.875Z,6.36
2017-03-12T03:37:19.304Z,6.38
2017-03-12T03:37:59.759Z,6.36
2017-03-12T03:38:40.198Z,6.3
2017-03-12T03:39:20.652Z,6.29
2017-03-12T03:40:01.110Z,6.19
2017-03-12T03:40:41.555Z,6.18
2017-03-12T03:41:22.000Z,6.25
2017-03-12T03:42:02.438Z,6.28
2017-03-12T03:42:42.890Z,6.29
2017-03-12T03:43:23.324Z,6.3
2017-03-12T03:44:03.783Z,6.25
2017-03-12T03:44:44.220Z,6.22
2017-03-12T03:45:24.663Z,6.26
2017-03-12T03:46:05.114Z,6.26
2017-03-12T03:46:45.559Z,6.13
2017-03-12T03:47:26.076Z,6.1
2017-03-12T03:48:06.512Z,6.03
2017-03-12T03:48:46.956Z,5.92
2017-03-12T03:49:27.375Z,5.92
2017-03-12T03:51:04.692Z,5.86
2017-03-12T03:51:45.133Z,5.92
2017-03-12T03:52:25.576Z,6.01
2017-03-12T03:53:06.019Z,5.93
2017-03-12T03:53:46.460Z,5.93
2017-03-12T03:54:26.918Z,5.98
2017-03-12T03:55:07.360Z,5.92
2017-03-12T03:55:47.803Z,5.89
2017-03-12T03:56:28.242Z,5.92
2017-03-12T03:57:08.677Z,6
2017-03-12T03:57:49.118Z,5.89
2017-03-12T03:58:29.561Z,5.92
2017-03-12T03:59:10.007Z,5.89
2017-03-12T03:59:50.448Z,5.91
2017-03-12T04:00:30.894Z,5.91
2017-03-12T04:01:11.333Z,5.81
2017-03-12T04:01:51.775Z,5.74
2017-03-12T04:02:32.220Z,5.81
2017-03-12T04:03:12.669Z,5.71
2017-03-12T04:03:53.121Z,5.75
2017-03-12T04:04:33.592Z,5.77
2017-03-12T04:05:14.014Z,5.77
2017-03-12T04:05:54.454Z,5.75
2017-03-12T04:06:34.893Z,5.77
2017-03-12T04:07:15.341Z,5.75
2017-03-12T04:07:55.792Z,5.63
2017-03-12T04:08:36.228Z,5.66
2017-03-12T04:09:17.276Z,5.66
2017-03-12T04:09:57.723Z,5.64
2017-03-12T04:10:38.170Z,5.77
2017-03-12T04:11:18.608Z,5.66
2017-03-12T04:11:59.062Z,5.73
2017-03-12T04:12:39.499Z,5.81
2017-03-12T04:13:19.936Z,5.74
2017-03-12T04:14:00.391Z,5.74
2017-03-12T04:14:40.829Z,5.73
2017-03-12T04:15:21.277Z,5.73
2017-03-12T04:16:01.717Z,5.78
2017-03-12T04:16:42.167Z,5.77
2017-03-12T04:17:22.600Z,5.73
2017-03-12T04:18:03.039Z,5.77
2017-03-12T04:18:43.488Z,5.75
2017-03-12T04:19:23.929Z,5.74
2017-03-12T04:20:04.378Z,5.75
2017-03-12T04:20:44.816Z,5.77
2017-03-12T04:21:25.257Z,5.73
2017-03-12T04:22:05.700Z,5.78
2017-03-12T04:22:46.147Z,5.85
2017-03-12T04:23:26.591Z,5.75
2017-03-12T04:24:07.032Z,5.64
2017-03-12T04:24:47.485Z,5.67
2017-03-12T04:25:27.920Z,5.67
2017-03-12T04:26:08.355Z,5.59
2017-03-12T04:26:48.801Z,5.55
2017-03-12T04:27:29.237Z,5.53
2017-03-12T04:28:09.677Z,5.64
2017-03-12T04:28:50.122Z,5.56
2017-03-12T04:29:30.565Z,5.6
2017-03-12T04:30:11.005Z,5.57
2017-03-12T04:30:51.452Z,5.59
2017-03-12T04:31:31.900Z,5.68
2017-03-12T04:32:12.342Z,5.7
2017-03-12T04:32:52.789Z,5.67
2017-03-12T04:33:33.238Z,5.73
2017-03-12T04:34:13.681Z,5.6
2017-03-12T04:34:54.129Z,5.56
2017-03-12T04:35:34.562Z,5.7
2017-03-12T04:36:15.005Z,5.66
2017-03-12T04:36:55.450Z,5.82
2017-03-12T04:37:35.890Z,5.74
2017-03-12T04:38:16.340Z,5.68
2017-03-12T04:38:56.779Z,5.57
2017-03-12T04:39:37.228Z,5.78
2017-03-12T04:40:17.669Z,5.7
2017-03-12T04:40:59.005Z,5.71
2017-03-12T04:41:39.453Z,5.7
2017-03-12T04:42:19.884Z,5.66
2017-03-12T04:43:00.342Z,5.55
2017-03-12T04:43:40.763Z,5.71
2017-03-12T04:44:21.207Z,5.67
2017-03-12T04:45:01.648Z,5.78
2017-03-12T04:45:42.088Z,5.77
2017-03-12T04:46:22.534Z,5.85
2017-03-12T04:47:02.972Z,5.81
2017-03-12T04:47:43.421Z,5.74
2017-03-12T04:48:23.868Z,5.67
2017-03-12T04:49:04.322Z,5.73
2017-03-12T04:49:45.617Z,5.75
2017-03-12T04:50:26.037Z,5.68
2017-03-12T04:51:06.479Z,5.74
2017-03-12T04:51:46.913Z,5.73
2017-03-12T04:52:27.360Z,5.73
2017-03-12T04:53:07.804Z,5.66
2017-03-12T04:53:48.250Z,5.74
2017-03-12T04:54:28.695Z,5.77
2017-03-12T04:55:09.688Z,5.74
2017-03-12T04:55:50.135Z,5.82
2017-03-12T04:56:30.591Z,5.73
2017-03-12T04:57:11.036Z,5.7
2017-03-12T04:57:51.481Z,5.66
2017-03-12T04:58:31.931Z,5.7
2017-03-12T04:59:12.375Z,5.6
2017-03-12T04:59:52.824Z,5.56
2017-03-12T05:00:33.261Z,5.66
2017-03-12T05:01:13.709Z,5.67
2017-03-12T05:01:54.158Z,5.64
2017-03-12T05:02:34.613Z,5.7
2017-03-12T05:03:15.054Z,5.71
2017-03-12T05:03:55.497Z,5.7
2017-03-12T05:04:36.036Z,5.74
2017-03-12T05:05:16.423Z,5.71
2017-03-12T05:05:56.869Z,5.63
2017-03-12T05:06:37.306Z,5.68
2017-03-12T05:07:17.744Z,5.59
2017-03-12T05:07:58.189Z,5.6
2017-03-12T05:08:38.644Z,5.7
2017-03-12T05:09:19.084Z,5.56
2017-03-12T05:09:59.525Z,5.6
2017-03-12T05:10:39.977Z,5.56
2017-03-12T05:11:20.417Z,5.68
2017-03-12T05:12:00.870Z,5.56
2017-03-12T05:12:41.319Z,5.53
2017-03-12T05:13:21.763Z,5.6
2017-03-12T05:14:02.227Z,5.6
2017-03-12T05:14:42.688Z,5.49
2017-03-12T05:15:23.127Z,5.6
2017-03-12T05:16:03.579Z,5.59
2017-03-12T05:16:44.022Z,5.6
2017-03-12T05:17:24.463Z,5.59
2017-03-12T05:18:04.899Z,5.64
2017-03-12T05:18:45.341Z,5.55
2017-03-12T05:19:25.786Z,5.56
2017-03-12T05:20:06.230Z,5.57
2017-03-12T05:20:46.684Z,5.55
2017-03-12T05:21:27.127Z,5.56
2017-03-12T05:22:07.565Z,5.55
2017-03-12T05:22:48.012Z,5.56
2017-03-12T05:23:28.446Z,5.7
2017-03-12T05:24:08.886Z,5.67
2017-03-12T05:24:49.338Z,5.67
2017-03-12T05:25:29.786Z,5.57
2017-03-12T05:26:10.248Z,5.67
2017-03-12T05:26:50.690Z,5.55
2017-03-12T05:27:31.160Z,5.66
2017-03-12T05:28:11.560Z,5.55
2017-03-12T05:28:52.014Z,5.59
2017-03-12T05:29:32.451Z,5.66
2017-03-12T05:30:12.904Z,5.6
2017-03-12T05:30:53.357Z,5.59
2017-03-12T05:31:33.806Z,5.64
2017-03-12T05:32:14.245Z,5.56
2017-03-12T05:32:54.691Z,5.5
2017-03-12T05:33:35.125Z,5.57
2017-03-12T05:34:15.564Z,5.64
2017-03-12T05:34:56.858Z,5.59
2017-03-12T05:35:37.289Z,5.63
2017-03-12T05:36:17.738Z,5.56
2017-03-12T05:36:58.187Z,5.6
2017-03-12T05:37:38.625Z,5.5
2017-03-12T05:38:19.049Z,5.53
2017-03-12T05:38:59.499Z,5.53
2017-03-12T05:39:39.938Z,5.6
2017-03-12T05:40:20.386Z,5.63
2017-03-12T05:41:00.839Z,5.57
2017-03-12T05:41:41.279Z,5.53
2017-03-12T05:42:21.722Z,5.66
2017-03-12T05:43:02.156Z,5.59
2017-03-12T05:43:42.603Z,5.59
2017-03-12T05:44:23.043Z,5.55
2017-03-12T05:45:03.489Z,5.57
2017-03-12T05:45:43.940Z,5.59
2017-03-12T05:46:25.357Z,5.53
2017-03-12T05:47:05.799Z,5.49
2017-03-12T05:47:46.245Z,5.5
2017-03-12T05:48:26.681Z,5.48
2017-03-12T05:49:07.122Z,5.43
2017-03-12T05:49:47.561Z,5.48
2017-03-12T05:50:28.004Z,5.56
2017-03-12T05:51:08.444Z,5.43
2017-03-12T05:51:48.889Z,5.59
2017-03-12T05:52:29.340Z,5.6
2017-03-12T05:53:09.784Z,5.53
2017-03-12T05:53:50.243Z,5.56
2017-03-12T05:54:30.665Z,5.53
2017-03-12T05:55:11.092Z,5.57
2017-03-12T05:55:51.540Z,5.57
2017-03-12T05:56:31.994Z,5.68
2017-03-12T05:57:12.425Z,5.53
2017-03-12T05:57:52.870Z,5.52
2017-03-12T05:58:33.304Z,5.64
2017-03-12T05:59:13.753Z,5.56
2017-03-12T05:59:54.179Z,5.53
2017-03-12T06:00:34.593Z,5.63
2017-03-12T06:01:15.037Z,5.66
2017-03-12T06:01:56.014Z,5.57
2017-03-12T06:02:36.439Z,5.66
2017-03-12T06:03:16.891Z,5.66
2017-03-12T06:03:57.313Z,5.64
2017-03-12T06:04:37.730Z,5.6
2017-03-12T06:05:18.161Z,5.68
2017-03-12T06:05:58.582Z,5.67
2017-03-12T06:06:39.960Z,5.67
2017-03-12T06:08:32.474Z,5.71
2017-03-12T06:09:12.852Z,5.71
2017-03-12T06:09:53.295Z,5.77
2017-03-12T06:10:33.742Z,5.82
2017-03-12T06:11:14.188Z,5.81
2017-03-12T06:11:54.630Z,5.91
2017-03-12T06:12:35.069Z,5.88
2017-03-12T06:13:15.502Z,5.93
2017-03-12T06:13:55.943Z,5.93
2017-03-12T06:14:36.380Z,5.95
2017-03-12T06:15:16.831Z,6
2017-03-12T06:15:57.273Z,5.98
2017-03-12T06:16:37.714Z,5.95
2017-03-12T06:17:18.147Z,6.01
2017-03-12T06:17:58.580Z,6.03
2017-03-12T06:18:39.023Z,5.98
2017-03-12T06:19:19.460Z,5.98
2017-03-12T06:19:59.904Z,6.07
2017-03-12T06:20:40.348Z,6.1
2017-03-12T06:21:20.792Z,6.01
2017-03-12T06:22:01.225Z,6.03
2017-03-12T06:22:41.687Z,6.03
2017-03-12T06:23:22.150Z,6.06
2017-03-12T06:24:02.588Z,6.09
2017-03-12T06:24:43.025Z,6.01
2017-03-12T06:25:23.468Z,6.06
2017-03-12T06:26:03.910Z,6.11
2017-03-12T06:26:44.360Z,6.06
2017-03-12T06:27:24.782Z,6.1
2017-03-12T06:28:05.233Z,6.16
2017-03-12T06:28:45.678Z,6.11
2017-03-12T06:29:26.120Z,6.13
2017-03-12T06:30:06.561Z,6.04
2017-03-12T06:30:47.000Z,6.04
2017-03-12T06:31:27.441Z,6.11
2017-03-12T06:32:07.886Z,6.07
2017-03-12T06:32:48.335Z,6.13
2017-03-12T06:33:28.780Z,6.1
2017-03-12T06:34:10.934Z,6.14
2017-03-12T06:34:51.369Z,6.25
2017-03-12T06:35:31.819Z,6.25
2017-03-12T06:36:12.268Z,6.16
2017-03-12T06:36:52.723Z,6.21
2017-03-12T06:37:33.165Z,6.09
2017-03-12T06:38:13.608Z,6.22
2017-03-12T06:38:54.049Z,6.21
2017-03-12T06:39:34.499Z,6.32
2017-03-12T06:40:15.510Z,6.26
2017-03-12T06:40:55.952Z,6.26
2017-03-12T06:41:36.402Z,6.25
2017-03-12T06:42:16.840Z,6.09
2017-03-12T06:42:57.278Z,6.26
2017-03-12T06:43:37.723Z,6.25
2017-03-12T06:44:18.178Z,6.21
2017-03-12T06:44:58.645Z,6.18
2017-03-12T06:45:39.061Z,6.29
2017-03-12T06:46:19.515Z,6.25
2017-03-12T06:46:59.968Z,6.25
2017-03-12T06:47:40.401Z,6.36
2017-03-12T06:48:21.506Z,6.36
2017-03-12T06:49:01.944Z,6.36
2017-03-12T06:49:42.397Z,6.36
2017-03-12T06:50:22.841Z,6.33
2017-03-12T06:51:03.287Z,6.38
2017-03-12T06:51:43.739Z,6.41
2017-03-12T06:52:24.189Z,6.33
2017-03-12T06:53:04.635Z,6.47
2017-03-12T06:53:45.076Z,6.44
2017-03-12T06:54:25.522Z,6.38
2017-03-12T06:55:05.969Z,6.46
2017-03-12T06:55:46.411Z,6.47
2017-03-12T06:56:26.851Z,6.43
2017-03-12T06:57:07.304Z,6.51
2017-03-12T06:57:47.752Z,6.61
2017-03-12T06:58:28.206Z,6.44
2017-03-12T06:59:08.655Z,6.44
2017-03-12T06:59:49.117Z,6.56
2017-03-12T07:00:29.531Z,6.59
2017-03-12T07:01:09.980Z,6.58
2017-03-12T07:01:50.442Z,6.59
2017-03-12T07:02:30.880Z,6.65
2017-03-12T07:03:11.324Z,6.56
2017-03-12T07:03:51.772Z,6.61
2017-03-12T07:04:32.211Z,6.62
2017-03-12T07:05:12.655Z,6.72
2017-03-12T07:05:53.096Z,6.69
2017-03-12T07:06:33.542Z,6.72
2017-03-12T07:07:13.980Z,6.73
2017-03-12T07:07:54.427Z,6.71
2017-03-12T07:08:34.879Z,6.71
2017-03-12T07:09:15.844Z,6.77
2017-03-12T07:09:56.287Z,6.79
2017-03-12T07:10:36.730Z,6.72
2017-03-12T07:11:17.172Z,6.68
2017-03-12T07:11:57.620Z,6.72
2017-03-12T07:12:38.060Z,6.84
2017-03-12T07:13:18.498Z,6.8
2017-03-12T07:13:58.948Z,6.72
2017-03-12T07:14:39.391Z,6.86
2017-03-12T07:15:19.836Z,6.81
2017-03-12T07:16:00.289Z,6.8
2017-03-12T07:16:40.735Z,6.8
2017-03-12T07:17:21.177Z,6.8
2017-03-12T07:18:01.619Z,6.8
2017-03-12T07:18:42.066Z,6.86
2017-03-12T07:19:22.518Z,6.97
2017-03-12T07:20:02.970Z,7.04
2017-03-12T07:20:43.416Z,7.01
2017-03-12T07:21:23.848Z,6.97
2017-03-12T07:22:04.287Z,7.04
2017-03-12T07:22:44.727Z,7.02
2017-03-12T07:23:25.174Z,7.04
2017-03-12T07:24:05.618Z,7.07
2017-03-12T07:24:46.059Z,7.15
2017-03-12T07:25:26.502Z,7.09
2017-03-12T07:26:06.957Z,7.27
2017-03-12T07:26:47.394Z,7.17
2017-03-12T07:27:27.844Z,7.2
2017-03-12T07:28:08.287Z,7.44
2017-03-12T07:28:48.734Z,7.52
2017-03-12T07:29:29.222Z,7.62
2017-03-12T07:30:09.716Z,7.75
2017-03-12T07:30:50.204Z,7.87
2017-03-12T07:31:31.434Z,8.26
2017-03-12T07:32:11.923Z,8.37
2017-03-12T07:32:52.415Z,8.54
2017-03-12T07:33:32.921Z,8.65
2017-03-12T07:34:13.418Z,8.62
2017-03-12T07:34:53.899Z,8.94
2017-03-12T07:35:34.437Z,8.94
2017-03-12T07:36:15.513Z,9.02
2017-03-12T07:36:56.004Z,9.12
2017-03-12T07:37:36.495Z,9.28
2017-03-12T07:38:16.987Z,9.35
2017-03-12T07:38:57.479Z,9.18
2017-03-12T07:39:37.978Z,9.53
2017-03-12T07:40:18.459Z,9.53
2017-03-12T07:40:58.961Z,9.88
2017-03-12T07:41:39.448Z,10.04
2017-03-12T07:42:19.940Z,10.24
2017-03-12T07:43:00.433Z,10.1
2017-03-12T07:43:40.931Z,10.25
2017-03-12T07:44:21.418Z,10.09
2017-03-12T07:45:01.916Z,10.1
2017-03-12T07:45:42.401Z,9.76
2017-03-12T07:46:22.894Z,9.78
2017-03-12T07:47:03.394Z,9.21
2017-03-12T07:47:43.876Z,9.1
2017-03-12T07:48:24.373Z,8.91
2017-03-12T07:49:04.841Z,8.88
2017-03-12T07:49:45.339Z,8.83
2017-03-12T07:50:25.813Z,8.97
2017-03-12T07:51:06.303Z,9.21
2017-03-12T07:51:46.784Z,9.28
2017-03-12T07:52:27.285Z,9.49
2017-03-12T07:53:07.777Z,9.79
2017-03-12T07:53:48.264Z,10.03
2017-03-12T07:54:28.747Z,10.25
2017-03-12T07:55:09.229Z,10.46
2017-03-12T07:55:49.703Z,10.09
2017-03-12T07:56:30.177Z,10.36
2017-03-12T07:57:10.670Z,10.55
2017-03-12T07:57:51.172Z,9.93
2017-03-12T07:58:31.654Z,10.1
2017-03-12T07:59:12.150Z,10.03
2017-03-12T07:59:52.638Z,9.49
2017-03-12T08:00:33.168Z,9.73
2017-03-12T08:01:13.662Z,9.71
2017-03-12T08:01:54.152Z,9.61
2017-03-12T08:02:34.648Z,9.6
2017-03-12T08:03:15.132Z,9.42
2017-03-12T08:03:55.628Z,9.56
2017-03-12T08:04:36.135Z,9.28
2017-03-12T08:05:16.717Z,9.21
2017-03-12T08:05:57.149Z,9.28
2017-03-12T08:06:37.636Z,9.18
2017-03-12T08:07:18.128Z,9.06
2017-03-12T08:07:58.620Z,9.04
2017-03-12T08:08:39.108Z,8.84
2017-03-12T08:09:19.603Z,9.04
2017-03-12T08:10:00.099Z,8.93
2017-03-12T08:10:40.598Z,9.05
2017-03-12T08:11:21.086Z,9.06
2017-03-12T08:12:02.164Z,8.96
2017-03-12T08:12:42.646Z,9.04
2017-03-12T08:13:23.136Z,9.01
2017-03-12T08:14:03.628Z,8.9
2017-03-12T08:14:44.120Z,8.9
2017-03-12T08:15:24.610Z,8.99
2017-03-12T08:16:05.104Z,8.96
2017-03-12T08:16:45.597Z,9.12
2017-03-12T08:17:26.085Z,8.97
2017-03-12T08:18:06.562Z,9.01
2017-03-12T08:18:47.854Z,8.87
2017-03-12T08:19:28.395Z,8.97
2017-03-12T08:20:08.846Z,8.93
2017-03-12T08:20:49.327Z,8.97
2017-03-12T08:21:30.755Z,9.09
2017-03-12T08:22:11.249Z,8.94
2017-03-12T08:22:51.741Z,9.09
2017-03-12T08:23:32.236Z,9.09
2017-03-12T08:24:12.723Z,9.18
2017-03-12T08:24:53.213Z,9.31
2017-03-12T08:25:33.706Z,9.3
2017-03-12T08:26:14.196Z,9.28
2017-03-12T08:26:54.697Z,9.27
2017-03-12T08:27:35.188Z,9.3
2017-03-12T08:28:15.674Z,9.53
2017-03-12T08:28:56.166Z,9.68
2017-03-12T08:29:36.658Z,9.83
2017-03-12T08:30:17.147Z,9.99
2017-03-12T08:30:57.644Z,10.51
2017-03-12T08:31:38.136Z,10.52
2017-03-12T08:32:18.626Z,11.13
2017-03-12T08:32:59.121Z,11.52
2017-03-12T08:33:39.617Z,11.87
2017-03-12T08:34:20.112Z,11.7
2017-03-12T08:35:00.603Z,10.7
2017-03-12T08:35:42.035Z,11.27
2017-03-12T08:36:22.533Z,11.72
2017-03-12T08:37:03.030Z,12.04
2017-03-12T08:37:43.523Z,12.16
2017-03-12T08:38:24.016Z,12.38
2017-03-12T08:39:04.511Z,12.42
2017-03-12T08:39:44.995Z,12.2
2017-03-12T08:40:25.490Z,12.2
2017-03-12T08:41:05.981Z,12.3
2017-03-12T08:41:46.460Z,11.93
2017-03-12T08:42:26.941Z,12.52
2017-03-12T08:43:07.435Z,13.02
2017-03-12T08:43:47.925Z,13.32
2017-03-12T08:44:28.413Z,13.24
2017-03-12T08:45:08.908Z,12.71
2017-03-12T08:45:49.439Z,12.82
2017-03-12T08:46:29.925Z,13.02
2017-03-12T08:47:10.418Z,13.06
2017-03-12T08:47:50.916Z,13.25
2017-03-12T08:48:31.408Z,13.25
2017-03-12T08:49:11.897Z,13.38
2017-03-12T08:49:52.386Z,13.29
2017-03-12T08:50:32.878Z,13.07
2017-03-12T08:51:13.370Z,13.37
2017-03-12T08:51:53.863Z,13.51
2017-03-12T08:52:34.352Z,13.52
2017-03-12T08:53:14.852Z,13.65
2017-03-12T08:53:55.339Z,12.89
2017-03-12T08:54:35.834Z,12.2
2017-03-12T08:55:16.349Z,12.26
2017-03-12T08:55:56.820Z,12.63
2017-03-12T08:56:37.317Z,13.17
2017-03-12T08:57:17.805Z,13.33
2017-03-12T08:57:58.306Z,13.77
2017-03-12T08:58:38.789Z,13.88
2017-03-12T08:59:19.242Z,13.77
2017-03-12T08:59:59.702Z,13.36
2017-03-12T09:00:40.156Z,13.49
2017-03-12T09:01:20.591Z,13.77